Time;durP1;ratioP1;P1;durP2;ratioP2;P2;SDS_P1;SDS_P2;PMS_P1;PMS_P2;Temp;Humidity;BMP_temperature;BMP_pressure;BME280_temperature;BME280_humidity;BME280_pressure;Samples;Min_cycle;Max_cycle;Signal;HPM_P1;HPM_P2
2023/02/24 00:03:40;;;;;;;19.50;6.83;;;5.40;99.90;;;;;;2614452;54;20620;-75
2023/02/24 00:09:29;;;;;;;21.03;7.90;;;5.40;99.90;;;;;;2614393;54;20383;-76
2023/02/24 00:15:16;;;;;;;15.93;6.10;;;5.30;99.90;;;;;;2614514;54;20330;-76
2023/02/24 00:21:07;;;;;;;16.30;6.53;;;5.20;99.90;;;;;;2614684;54;20138;-75
2023/02/24 00:27:00;;;;;;;15.97;6.33;;;5.30;99.90;;;;;;2614357;54;20363;-76
2023/02/24 00:32:47;;;;;;;17.77;8.90;;;5.30;99.90;;;;;;2614379;54;20435;-76
2023/02/24 00:38:36;;;;;;;15.43;6.40;;;5.40;99.90;;;;;;2614744;54;20143;-76
2023/02/24 00:44:24;;;;;;;19.33;7.20;;;5.40;99.90;;;;;;2614223;54;20366;-76
2023/02/24 00:50:13;;;;;;;36.07;8.13;;;5.40;99.90;;;;;;2614483;54;20617;-76
2023/02/24 00:53:17;;;;;;;21.73;7.30;;;5.40;99.90;;;;;;2613637;54;20390;-77
2023/02/24 00:55:43;;;;;;;26.83;7.57;;;5.30;99.90;;;;;;2614418;54;20929;-76
2023/02/24 01:01:32;;;;;;;13.70;6.30;;;5.20;99.90;;;;;;2615344;54;20387;-76
2023/02/24 01:07:20;;;;;;;21.80;6.90;;;5.10;99.90;;;;;;2614875;54;20358;-76
2023/02/24 01:13:07;;;;;;;16.80;6.17;;;5.00;99.90;;;;;;2615252;54;20471;-76
2023/02/24 01:18:55;;;;;;;20.63;7.57;;;4.90;99.90;;;;;;2615021;54;20129;-75
2023/02/24 01:24:44;;;;;;;31.40;6.10;;;4.90;99.90;;;;;;2615104;54;20561;-76
2023/02/24 01:30:33;;;;;;;20.67;5.30;;;4.90;99.90;;;;;;2615371;54;20430;-76
2023/02/24 01:36:24;;;;;;;18.90;5.50;;;4.80;99.90;;;;;;2615059;54;21011;-76
2023/02/24 01:42:18;;;;;;;23.33;5.93;;;4.80;99.90;;;;;;2615246;54;20350;-76
2023/02/24 01:48:08;;;;;;;23.20;6.13;;;4.70;99.90;;;;;;2614742;54;20412;-76
2023/02/24 01:57:50;;;;;;;22.27;7.83;;;4.70;99.90;;;;;;2614538;54;20374;-76
2023/02/24 02:03:40;;;;;;;17.70;7.10;;;4.70;99.90;;;;;;2615426;54;20387;-77
2023/02/24 02:09:28;;;;;;;17.30;6.50;;;4.60;99.90;;;;;;2615536;39;20801;-76
2023/02/24 02:15:19;;;;;;;23.33;5.83;;;4.60;99.90;;;;;;2615667;54;20624;-76
2023/02/24 02:21:14;;;;;;;24.57;7.70;;;4.40;99.90;;;;;;2615228;54;20422;-76
2023/02/24 02:33:45;;;;;;;18.60;6.30;;;4.10;99.90;;;;;;2615175;54;20342;-76
2023/02/24 02:46:14;;;;;;;21.83;7.17;;;3.90;99.90;;;;;;2614788;54;20338;-76
2023/02/24 02:52:09;;;;;;;25.00;6.60;;;3.90;99.90;;;;;;2615192;54;20350;-77
2023/02/24 02:57:59;;;;;;;21.23;6.97;;;3.70;99.90;;;;;;2614645;54;20423;-76
2023/02/24 03:03:51;;;;;;;27.00;8.47;;;3.70;99.90;;;;;;2615227;54;20338;-76
2023/02/24 03:09:43;;;;;;;16.93;7.07;;;3.60;99.90;;;;;;2614991;54;20395;-77
2023/02/24 03:15:32;;;;;;;15.03;5.90;;;3.40;99.90;;;;;;2615113;54;20499;-76
2023/02/24 03:28:04;;;;;;;19.10;7.00;;;3.60;99.90;;;;;;2614529;54;21005;-75
2023/02/24 03:40:26;;;;;;;23.50;7.20;;;3.80;99.90;;;;;;2615017;54;20915;-76
2023/02/24 03:46:15;;;;;;;18.07;7.30;;;3.80;99.90;;;;;;2614749;54;20362;-76
2023/02/24 04:01:58;;;;;;;21.30;6.60;;;3.60;99.90;;;;;;2615107;54;20398;-74
2023/02/24 04:24:58;;;;;;;25.90;8.13;;;3.10;99.90;;;;;;2613183;54;20404;-74
2023/02/24 04:30:49;;;;;;;16.13;9.80;;;3.10;99.90;;;;;;2613441;54;20452;-74
2023/02/24 04:36:37;;;;;;;16.70;8.00;;;3.20;99.90;;;;;;2613844;54;20403;-75
2023/02/24 04:42:24;;;;;;;15.03;7.53;;;3.40;99.90;;;;;;2614097;54;20383;-74
2023/02/24 04:48:12;;;;;;;24.30;9.30;;;3.40;99.90;;;;;;2613824;54;20945;-74
2023/02/24 04:54:00;;;;;;;19.87;7.50;;;3.40;99.90;;;;;;2614017;46;20134;-74
2023/02/24 04:56:47;;;;;;;19.83;8.67;;;3.40;99.90;;;;;;2614017;54;20397;-74
2023/02/24 04:59:14;;;;;;;10.97;5.80;;;3.40;99.90;;;;;;2615393;54;20439;-73
2023/02/24 05:05:03;;;;;;;16.97;6.10;;;3.50;99.90;;;;;;2616013;39;20742;-75
2023/02/24 05:10:51;;;;;;;13.93;6.47;;;3.60;99.90;;;;;;2615508;54;20895;-73
2023/02/24 05:16:38;;;;;;;16.10;5.47;;;3.70;99.90;;;;;;2615121;54;20131;-74
2023/02/24 05:22:27;;;;;;;16.83;6.37;;;3.70;99.90;;;;;;2615254;54;20247;-74
2023/02/24 05:28:14;;;;;;;20.80;6.20;;;3.70;99.90;;;;;;2615275;54;20366;-74
2023/02/24 05:34:05;;;;;;;8.70;4.67;;;3.70;99.90;;;;;;2615328;54;20150;-74
2023/02/24 05:39:59;;;;;;;16.63;6.37;;;3.80;99.90;;;;;;2615119;54;20365;-74
2023/02/24 05:45:46;;;;;;;18.73;7.30;;;3.80;99.90;;;;;;2615100;54;20398;-73
2023/02/24 05:51:35;;;;;;;15.80;6.70;;;3.80;99.90;;;;;;2615179;54;20162;-74
2023/02/24 06:01:20;;;;;;;11.30;6.00;;;4.00;99.90;;;;;;2615246;54;20392;-74
2023/02/24 06:07:12;;;;;;;19.50;6.57;;;3.90;99.90;;;;;;2615118;54;21194;-73
2023/02/24 06:13:01;;;;;;;16.23;6.47;;;4.00;99.90;;;;;;2615681;46;20382;-74
2023/02/24 06:18:49;;;;;;;19.57;8.17;;;4.00;99.90;;;;;;2614989;54;20367;-75
2023/02/24 06:24:36;;;;;;;10.20;6.50;;;4.10;99.90;;;;;;2615590;39;20524;-74
2023/02/24 06:30:25;;;;;;;14.13;5.80;;;4.10;99.90;;;;;;2614998;54;20279;-73
2023/02/24 06:36:13;;;;;;;15.80;7.07;;;4.10;99.90;;;;;;2615160;54;20355;-74
2023/02/24 06:42:03;;;;;;;14.67;7.37;;;4.10;99.90;;;;;;2615168;54;20402;-75
2023/02/24 06:47:51;;;;;;;11.53;5.80;;;4.10;99.90;;;;;;2614826;54;20907;-74
2023/02/24 06:53:42;;;;;;;14.40;6.30;;;4.00;99.90;;;;;;2615051;54;20143;-75
2023/02/24 06:56:46;;;;;;;15.77;6.67;;;4.00;99.90;;;;;;2614046;47;20399;-74
2023/02/24 06:59:14;;;;;;;8.73;5.30;;;4.10;99.90;;;;;;2615060;39;20829;-75
2023/02/24 07:05:05;;;;;;;11.67;6.67;;;4.10;99.90;;;;;;2614530;54;20479;-75
2023/02/24 07:10:58;;;;;;;15.80;6.73;;;4.10;99.90;;;;;;2614545;54;20359;-74
2023/02/24 07:16:51;;;;;;;17.63;8.70;;;4.10;99.90;;;;;;2614778;39;20909;-75
2023/02/24 07:22:40;;;;;;;13.33;7.07;;;4.20;99.90;;;;;;2614727;46;20486;-74
2023/02/24 07:28:28;;;;;;;11.73;7.33;;;4.30;99.90;;;;;;2614379;54;20363;-74
2023/02/24 07:34:22;;;;;;;20.23;9.27;;;4.30;99.90;;;;;;2614814;54;20238;-75
2023/02/24 07:40:16;;;;;;;19.40;6.57;;;4.40;99.90;;;;;;2614453;39;20941;-73
2023/02/24 07:46:10;;;;;;;13.53;8.50;;;4.50;99.90;;;;;;2614573;39;20865;-74
2023/02/24 07:51:58;;;;;;;8.57;5.33;;;4.50;99.90;;;;;;2614360;46;20374;-75
2023/02/24 08:01:23;;;;;;;10.80;6.23;;;4.60;99.90;;;;;;2614762;54;20363;-74
2023/02/24 08:07:13;;;;;;;8.87;6.33;;;4.70;99.90;;;;;;2614546;54;20383;-74
2023/02/24 08:13:02;;;;;;;13.33;6.53;;;4.60;99.90;;;;;;2615228;39;20707;-74
2023/02/24 08:18:49;;;;;;;14.57;7.80;;;4.70;99.90;;;;;;2614452;54;20386;-72
2023/02/24 08:24:37;;;;;;;7.57;6.90;;;4.80;99.90;;;;;;2614403;54;20122;-73
2023/02/24 08:30:28;;;;;;;9.07;6.40;;;4.80;99.90;;;;;;2614380;54;20798;-74
2023/02/24 08:36:20;;;;;;;14.73;7.70;;;4.90;99.90;;;;;;2614783;39;21301;-73
2023/02/24 08:42:08;;;;;;;12.17;6.97;;;4.90;99.90;;;;;;2614459;54;20383;-74
2023/02/24 08:47:59;;;;;;;6.97;6.27;;;4.80;99.90;;;;;;2614466;54;20326;-74
2023/02/24 08:53:52;;;;;;;16.33;7.30;;;4.90;99.90;;;;;;2614541;54;20347;-74
2023/02/24 08:56:48;;;;;;;8.60;6.33;;;4.90;99.90;;;;;;2613697;54;20383;-74
2023/02/24 09:05:24;;;;;;;8.13;7.40;;;5.00;99.90;;;;;;2614411;54;20391;-73
2023/02/24 09:11:14;;;;;;;7.57;7.07;;;5.10;99.90;;;;;;2614398;54;20900;-74
2023/02/24 09:17:09;;;;;;;9.90;8.23;;;5.20;99.90;;;;;;2614150;54;20431;-74
2023/02/24 09:23:06;;;;;;;8.87;7.30;;;5.30;99.90;;;;;;2613540;54;20370;-74
2023/02/24 09:28:56;;;;;;;9.30;7.40;;;5.20;99.90;;;;;;2613804;46;20965;-73
2023/02/24 09:38:04;;;;;;;15.80;8.93;;;5.20;99.90;;;;;;2613726;46;20451;-74
2023/02/24 09:43:58;;;;;;;13.20;7.17;;;5.30;99.90;;;;;;2613390;54;20233;-73
2023/02/24 09:49:57;;;;;;;8.37;6.73;;;5.20;99.90;;;;;;2614136;54;20993;-73
2023/02/24 09:56:04;;;;;;;23.67;7.97;;;5.40;99.90;;;;;;2613752;54;20398;-73
2023/02/24 10:28:39;;;;;;;7.23;6.07;;;5.20;99.90;;;;;;2613477;54;20419;-74
2023/02/24 10:34:35;;;;;;;6.07;5.57;;;5.00;99.90;;;;;;2613340;54;20371;-73
2023/02/24 10:40:55;;;;;;;9.03;6.33;;;4.90;99.90;;;;;;2613548;54;20410;-74
2023/02/24 10:46:43;;;;;;;12.23;5.50;;;4.70;99.90;;;;;;2613248;54;20505;-73
2023/02/24 10:52:36;;;;;;;11.73;6.50;;;4.70;99.90;;;;;;2613641;54;20138;-73
2023/02/24 10:58:43;;;;;;;8.70;5.30;;;4.80;99.90;;;;;;2613382;54;21055;-73
2023/02/24 11:23:03;;;;;;;14.90;6.50;;;4.30;99.90;;;;;;2614986;54;20359;-73
2023/02/24 11:28:57;;;;;;;13.10;5.80;;;4.30;99.90;;;;;;2614964;54;20391;-73
2023/02/24 11:35:10;;;;;;;8.97;6.33;;;4.10;99.90;;;;;;2614881;54;20375;-73
2023/02/24 11:47:50;;;;;;;11.17;5.83;;;4.00;99.90;;;;;;2613341;54;20506;-73
2023/02/24 11:53:43;;;;;;;11.40;4.67;;;4.00;99.90;;;;;;2613260;54;20391;-73
2023/02/24 11:59:38;;;;;;;8.67;6.10;;;4.00;99.90;;;;;;2613383;54;20504;-74
2023/02/24 12:05:35;;;;;;;12.10;5.33;;;4.00;99.90;;;;;;2613228;54;20432;-75
2023/02/24 12:21:06;;;;;;;21.50;7.33;;;4.10;99.90;;;;;;2613207;54;20371;-74
2023/02/24 12:33:19;;;;;;;10.20;6.47;;;4.00;99.90;;;;;;2613079;54;20428;-74
2023/02/24 12:42:37;;;;;;;10.40;6.30;;;4.00;99.90;;;;;;2614726;54;20430;-74
2023/02/24 13:05:15;;;;;;;14.43;9.70;;;3.90;99.90;;;;;;2613619;54;20379;-74
2023/02/24 13:17:29;;;;;;;19.00;8.57;;;3.90;99.90;;;;;;2613769;54;20678;-73
2023/02/24 13:23:21;;;;;;;19.17;10.23;;;3.90;99.90;;;;;;2613787;54;20277;-75
2023/02/24 13:29:11;;;;;;;20.50;11.17;;;3.90;99.90;;;;;;2613558;54;20390;-74
2023/02/24 13:35:04;;;;;;;45.07;15.70;;;4.00;99.90;;;;;;2614179;54;20386;-73
2023/02/24 13:40:52;;;;;;;18.30;13.13;;;4.10;99.90;;;;;;2615159;54;20375;-75
2023/02/24 14:00:00;;;;;;;33.90;16.33;;;4.40;99.90;;;;;;2615055;54;20487;-75
2023/02/24 14:05:50;;;;;;;30.23;15.40;;;4.50;99.90;;;;;;2614664;54;21015;-76
2023/02/24 14:09:11;;;;;;;18.50;13.60;;;4.50;99.90;;;;;;2614245;47;20408;-75
2023/02/24 14:15:01;;;;;;;19.00;13.67;;;4.50;99.90;;;;;;2615199;39;20957;-76
2023/02/24 14:20:51;;;;;;;16.70;12.20;;;4.50;99.90;;;;;;2615155;54;20435;-75
2023/02/24 14:26:48;;;;;;;20.83;13.63;;;4.50;99.90;;;;;;2614791;54;20359;-76
2023/02/24 14:32:36;;;;;;;25.40;15.57;;;4.50;99.90;;;;;;2614964;54;20387;-76
2023/02/24 14:38:36;;;;;;;23.50;11.63;;;4.60;99.90;;;;;;2614756;54;20126;-76
2023/02/24 14:44:28;;;;;;;37.00;20.27;;;4.60;99.90;;;;;;2615034;54;20479;-74
2023/02/24 14:50:18;;;;;;;28.60;17.20;;;4.80;99.90;;;;;;2615061;54;20379;-76
2023/02/24 14:56:10;;;;;;;22.10;13.70;;;4.90;99.90;;;;;;2614947;54;20375;-75
2023/02/24 15:02:01;;;;;;;35.97;18.47;;;5.00;99.90;;;;;;2614742;54;20382;-76
2023/02/24 15:04:43;;;;;;;36.30;16.60;;;5.00;99.90;;;;;;2614887;54;20434;-74
2023/02/24 15:07:22;;;;;;;28.10;17.87;;;5.10;99.90;;;;;;2614667;54;20435;-76
2023/02/24 15:19:45;;;;;;;21.33;16.27;;;5.20;99.90;;;;;;2614873;54;20894;-74
2023/02/24 15:25:44;;;;;;;36.30;19.30;;;5.40;99.90;;;;;;2613306;54;20427;-76
2023/02/24 15:35:06;;;;;;;30.93;17.53;;;5.50;99.90;;;;;;2613111;54;20415;-76
2023/02/24 15:40:56;;;;;;;26.27;16.87;;;5.50;99.90;;;;;;2613394;54;20394;-74
2023/02/24 15:46:45;;;;;;;23.20;15.43;;;5.60;99.90;;;;;;2613225;54;20384;-75
2023/02/24 15:52:32;;;;;;;29.90;16.00;;;5.70;99.90;;;;;;2613549;54;20366;-75
2023/02/24 15:58:21;;;;;;;34.57;21.33;;;5.70;99.90;;;;;;2614464;54;20382;-75
2023/02/24 16:04:09;;;;;;;30.63;19.00;;;5.70;99.90;;;;;;2614910;54;20405;-75
2023/02/24 16:09:58;;;;;;;24.47;16.87;;;5.60;99.90;;;;;;2614279;54;20325;-74
2023/02/24 16:13:14;;;;;;;27.40;18.83;;;5.60;99.90;;;;;;2613976;54;20396;-74
2023/02/24 16:19:01;;;;;;;15.50;11.60;;;5.50;99.90;;;;;;2614473;54;20386;-75
2023/02/24 16:24:49;;;;;;;15.87;11.77;;;5.50;99.90;;;;;;2614286;54;20126;-75
2023/02/24 16:30:37;;;;;;;19.97;11.83;;;5.60;99.90;;;;;;2615161;54;20407;-74
2023/02/24 16:36:26;;;;;;;23.53;12.50;;;5.70;99.90;;;;;;2615122;54;20398;-75
2023/02/24 16:42:15;;;;;;;17.17;11.50;;;5.60;99.90;;;;;;2615404;54;20495;-74
2023/02/24 16:54:20;;;;;;;17.50;10.10;;;5.60;99.90;;;;;;2615366;54;20471;-75
2023/02/24 17:00:10;;;;;;;20.60;12.63;;;5.60;99.90;;;;;;2615113;54;21237;-75
2023/02/24 17:05:58;;;;;;;16.80;10.10;;;5.60;99.90;;;;;;2615012;54;20341;-75
2023/02/24 17:08:42;;;;;;;15.97;9.60;;;5.60;99.90;;;;;;2615561;54;20378;-76
2023/02/24 17:11:20;;;;;;;13.93;7.20;;;5.70;99.90;;;;;;2614349;54;20194;-75
2023/02/24 17:14:23;;;;;;;20.03;8.27;;;5.70;99.90;;;;;;2615251;54;20446;-76
2023/02/24 17:16:49;;;;;;;19.03;8.97;;;5.70;99.90;;;;;;2614246;47;20394;-75
2023/02/24 17:22:37;;;;;;;13.13;6.70;;;5.70;99.90;;;;;;2615164;54;20158;-74
2023/02/24 17:28:24;;;;;;;12.00;5.30;;;5.80;99.90;;;;;;2615153;54;20135;-75
2023/02/24 17:34:12;;;;;;;13.23;5.00;;;5.60;99.90;;;;;;2615179;54;20127;-76
2023/02/24 17:40:00;;;;;;;14.17;6.30;;;5.50;99.90;;;;;;2615187;54;20118;-76
2023/02/24 17:45:48;;;;;;;17.13;6.70;;;5.60;99.90;;;;;;2615195;46;20178;-76
2023/02/24 17:51:36;;;;;;;20.97;6.07;;;5.50;99.90;;;;;;2615093;54;20371;-75
2023/02/24 17:57:28;;;;;;;13.63;6.17;;;5.60;99.90;;;;;;2615024;54;20134;-76
2023/02/24 18:03:16;;;;;;;8.80;4.60;;;5.60;99.90;;;;;;2615258;54;20395;-75
2023/02/24 18:19:20;;;;;;;5.40;2.53;;;4.40;99.90;;;;;;2613474;54;20458;-75
2023/02/24 18:25:07;;;;;;;3.27;2.13;;;4.40;99.90;;;;;;2613144;54;20391;-74
2023/02/24 18:30:55;;;;;;;6.87;4.53;;;4.40;99.90;;;;;;2613552;54;20799;-74
2023/02/24 18:36:43;;;;;;;12.77;5.10;;;4.40;99.90;;;;;;2613866;39;20820;-75
2023/02/24 18:42:30;;;;;;;9.67;5.33;;;4.50;99.90;;;;;;2613318;54;20130;-75
2023/02/24 18:48:17;;;;;;;12.60;8.20;;;4.60;99.90;;;;;;2613620;54;20122;-74
2023/02/24 18:54:04;;;;;;;12.57;5.43;;;4.50;99.90;;;;;;2614505;54;20162;-75
2023/02/24 18:59:52;;;;;;;10.70;4.27;;;4.60;99.90;;;;;;2614996;54;20115;-75
2023/02/24 19:05:40;;;;;;;15.17;7.17;;;4.50;99.90;;;;;;2614598;54;20379;-75
2023/02/24 19:08:42;;;;;;;15.10;6.40;;;4.50;99.90;;;;;;2614110;54;20506;-75
2023/02/24 19:11:17;;;;;;;8.17;5.33;;;4.60;99.90;;;;;;2614763;54;20151;-75
2023/02/24 19:17:05;;;;;;;12.67;4.27;;;4.50;99.90;;;;;;2614780;54;20455;-75
2023/02/24 19:22:53;;;;;;;10.53;4.63;;;4.50;99.90;;;;;;2614701;54;20697;-76
2023/02/24 19:28:41;;;;;;;9.23;4.30;;;4.40;99.90;;;;;;2614660;54;20191;-76
2023/02/24 19:34:28;;;;;;;9.93;5.60;;;4.10;99.90;;;;;;2614472;54;20129;-77
2023/02/24 19:40:17;;;;;;;6.93;5.30;;;4.10;99.90;;;;;;2615219;54;20110;-76
2023/02/24 19:46:06;;;;;;;15.73;4.10;;;4.20;99.90;;;;;;2614722;54;20346;-76
2023/02/24 19:51:58;;;;;;;7.87;4.30;;;4.20;99.90;;;;;;2615012;39;20532;-75
2023/02/24 19:57:45;;;;;;;7.63;5.20;;;4.20;99.90;;;;;;2614657;54;21394;-76
2023/02/24 20:03:33;;;;;;;22.07;7.03;;;4.30;99.90;;;;;;2614500;54;20139;-75
2023/02/24 20:13:15;;;;;;;11.70;4.30;;;4.40;99.90;;;;;;2614588;54;20362;-71
2023/02/24 20:19:04;;;;;;;12.27;5.20;;;4.40;99.90;;;;;;2614523;54;20368;-71
2023/02/24 20:24:52;;;;;;;11.30;4.80;;;4.40;99.90;;;;;;2614232;54;20396;-72
2023/02/24 20:30:39;;;;;;;13.03;4.73;;;4.40;99.90;;;;;;2614547;54;20700;-71
2023/02/24 20:36:28;;;;;;;13.17;6.20;;;4.40;99.90;;;;;;2614412;54;20313;-71
2023/02/24 20:42:16;;;;;;;13.67;6.00;;;4.20;99.90;;;;;;2614666;54;20391;-72
2023/02/24 20:48:05;;;;;;;15.10;6.57;;;4.10;99.90;;;;;;2614860;39;20831;-72
2023/02/24 20:53:54;;;;;;;21.83;8.77;;;4.00;99.90;;;;;;2614682;39;20610;-71
2023/02/24 20:59:42;;;;;;;12.60;5.27;;;4.00;99.90;;;;;;2614550;54;20421;-71
2023/02/24 21:05:30;;;;;;;21.77;7.30;;;4.10;99.90;;;;;;2614608;54;20358;-72
2023/02/24 21:08:42;;;;;;;18.03;7.43;;;4.10;99.90;;;;;;2614992;39;20774;-73
2023/02/24 21:11:09;;;;;;;22.13;6.83;;;4.10;99.90;;;;;;2614503;54;20147;-71
2023/02/24 21:16:56;;;;;;;22.43;7.87;;;3.90;99.90;;;;;;2615101;39;20848;-71
2023/02/24 21:22:44;;;;;;;28.50;7.63;;;3.90;99.90;;;;;;2616204;31;20637;-72
2023/02/24 21:28:33;;;;;;;12.63;4.30;;;3.70;99.90;;;;;;2615392;54;20131;-71
2023/02/24 21:34:21;;;;;;;22.03;6.73;;;3.60;99.90;;;;;;2615711;39;20786;-71
2023/02/24 21:40:12;;;;;;;22.10;6.80;;;3.60;99.90;;;;;;2615437;54;20915;-72
2023/02/24 21:46:07;;;;;;;12.60;4.73;;;3.50;99.90;;;;;;2615148;54;20472;-71
2023/02/24 21:51:55;;;;;;;12.17;4.83;;;3.70;99.90;;;;;;2615574;54;20484;-72
2023/02/24 21:57:44;;;;;;;16.47;5.53;;;3.80;99.90;;;;;;2615202;54;20118;-71
2023/02/24 22:03:31;;;;;;;13.40;3.67;;;3.90;99.90;;;;;;2615423;39;20755;-71
2023/02/24 22:13:15;;;;;;;21.00;7.17;;;3.90;99.90;;;;;;2615384;54;20382;-71
2023/02/24 22:19:05;;;;;;;22.17;7.27;;;4.00;99.90;;;;;;2615289;54;20362;-71
2023/02/24 22:24:53;;;;;;;15.50;5.67;;;4.10;99.90;;;;;;2614722;54;20363;-71
2023/02/24 22:30:41;;;;;;;17.97;6.23;;;4.10;99.90;;;;;;2615078;54;20423;-70
2023/02/24 22:36:32;;;;;;;20.60;6.03;;;4.00;99.90;;;;;;2614832;54;20142;-71
2023/02/24 22:42:20;;;;;;;22.07;6.30;;;4.10;99.90;;;;;;2614976;54;20375;-71
2023/02/24 22:48:07;;;;;;;18.90;6.00;;;3.90;99.90;;;;;;2614784;54;20126;-71
2023/02/24 22:53:55;;;;;;;12.47;4.83;;;3.70;99.90;;;;;;2614785;54;20137;-70
2023/02/24 22:59:44;;;;;;;28.90;5.50;;;3.90;99.90;;;;;;2614946;54;20941;-71
2023/02/24 23:05:31;;;;;;;13.90;4.70;;;3.90;99.90;;;;;;2614820;54;20126;-71
2023/02/24 23:08:43;;;;;;;14.30;4.30;;;3.90;99.90;;;;;;2614028;54;20391;-71
2023/02/24 23:11:12;;;;;;;14.50;4.53;;;4.00;99.90;;;;;;2614732;39;20707;-71
2023/02/24 23:17:00;;;;;;;9.63;3.73;;;4.00;99.90;;;;;;2614882;54;20419;-71
2023/02/24 23:22:49;;;;;;;10.00;4.27;;;3.90;99.90;;;;;;2614907;54;20157;-70
2023/02/24 23:28:37;;;;;;;7.43;3.40;;;3.90;99.90;;;;;;2615237;39;20776;-70
2023/02/24 23:34:25;;;;;;;5.20;3.30;;;4.00;99.90;;;;;;2615037;54;20439;-70
2023/02/24 23:40:15;;;;;;;25.77;5.47;;;3.90;99.90;;;;;;2614664;54;20399;-70
2023/02/24 23:46:05;;;;;;;12.37;4.20;;;4.00;99.90;;;;;;2614645;54;20391;-71
2023/02/24 23:51:52;;;;;;;10.20;4.97;;;4.00;99.90;;;;;;2614723;54;20941;-71
2023/02/24 23:57:40;;;;;;;9.40;4.87;;;4.00;99.90;;;;;;2614934;54;20130;-71
